Terminal Aerodrome Forecast
Issued by NWS

Home | Current Version | Previous Version | Text Only | Print | Product List | Glossary On
Versions: 1 2 3 4 5 6 7 8 9 10 11 12 13 14
000
FTAK31 PAJN 281400 AAA
TAFAWG
TAF AMD
PAWG 281424Z 2814/2912 10008KT P6SM VCFG BKN050
     FM281600 12012KT P6SM SCT040 BKN100 WS020/14025KT
     FM282000 13012G22KT 6SM -RA SCT020 OVC040 WS020/14030KT
     FM290200 14010G18KT 5SM -SHRA BR BKN015 OVC025
      AMD LTD TO CLD VIS AND WIND 2814/2815=

USA.gov is the U.S. government's official web portal to all federal, state and local government web resources and services.